createdAt,value
2023-03-23T15:59:34.703Z,99525.78
2023-03-23T16:02:37.287Z,99522.59
2023-03-23T16:05:39.952Z,99520.22
2023-03-23T16:08:42.618Z,99523.72
2023-03-23T16:11:56.708Z,99519.22
2023-03-23T16:14:59.082Z,99523.31
2023-03-23T16:18:01.537Z,99538.88
2023-03-23T16:21:04.612Z,99541.22
2023-03-23T16:24:08.135Z,99546.28
2023-03-23T16:27:11.261Z,99549.28
2023-03-23T16:30:20.313Z,99534.94
2023-03-23T16:33:22.749Z,99527.59
2023-03-23T16:36:25.193Z,99537.91
2023-03-23T16:39:28.112Z,99543.94
2023-03-23T16:42:30.809Z,99536.16
2023-03-23T16:45:33.383Z,99553.50
2023-03-23T16:48:38.462Z,99552.38
2023-03-23T16:51:42.820Z,99547.97
2023-03-23T16:54:45.866Z,99539.34
2023-03-23T16:57:48.559Z,99544.56
2023-03-23T17:00:52.232Z,99556.72
2023-03-23T17:03:55.890Z,99548.16
2023-03-23T17:06:59.232Z,99541.94
2023-03-23T17:10:01.548Z,99554.69
2023-03-23T17:13:03.970Z,99551.94
2023-03-23T17:16:07.065Z,99556.47
2023-03-23T17:19:09.519Z,99556.06
2023-03-23T17:22:12.295Z,99548.16
2023-03-23T17:25:14.816Z,99565.97
2023-03-23T17:28:19.452Z,99555.47
2023-03-23T17:31:22.812Z,99560.66
2023-03-23T17:34:26.480Z,99560.56
2023-03-23T17:37:28.907Z,99564.53
2023-03-23T17:40:31.275Z,99567.22
2023-03-23T17:43:33.845Z,99572.75
2023-03-23T17:46:36.478Z,99569.41
2023-03-23T17:49:39.091Z,99562.88
2023-03-23T17:52:43.414Z,99576.16
2023-03-23T17:55:46.141Z,99574.41
2023-03-23T17:58:48.646Z,99575.19
2023-03-23T18:01:52.061Z,99576.91
2023-03-23T18:04:58.331Z,99578.84
2023-03-23T18:08:01.119Z,99589.28
2023-03-23T18:11:04.248Z,99582.88
2023-03-23T18:14:06.740Z,99591.06
2023-03-23T18:17:09.137Z,99590.72
2023-03-23T18:20:11.739Z,99590.59
2023-03-23T18:23:14.798Z,99588.53
2023-03-23T18:26:17.257Z,99588.75
2023-03-23T18:29:19.639Z,99594.59
2023-03-23T18:32:22.112Z,99596.81
2023-03-23T18:35:24.455Z,99581.63
2023-03-23T18:38:27.094Z,99599.75
2023-03-23T18:41:29.502Z,99610.94
2023-03-23T18:44:31.867Z,99599.97
2023-03-23T18:47:34.793Z,99605.81
2023-03-23T18:50:37.348Z,99616.38
2023-03-23T18:53:39.969Z,99613.78
2023-03-23T18:56:42.354Z,99637.53
2023-03-23T18:59:44.709Z,99638.00
2023-03-23T19:02:47.449Z,99632.09
2023-03-23T19:05:59.400Z,99620.00
2023-03-23T19:09:01.973Z,99634.16
2023-03-23T19:12:04.711Z,99607.47
2023-03-23T19:15:07.806Z,99620.69
2023-03-23T19:18:10.261Z,99628.50
2023-03-23T19:21:15.648Z,99635.81
2023-03-23T19:24:20.528Z,99638.84
2023-03-23T19:27:22.941Z,99641.44
2023-03-23T19:30:27.895Z,99633.09
2023-03-23T19:33:30.433Z,99677.47
2023-03-23T19:36:33.483Z,99686.06
2023-03-23T19:39:36.862Z,99687.16
2023-03-23T19:42:40.456Z,99695.63
2023-03-23T19:45:43.142Z,99695.25
2023-03-23T19:48:46.753Z,99700.31
2023-03-23T19:51:49.129Z,99686.41
2023-03-23T19:54:51.624Z,99687.84
2023-03-23T19:57:54.144Z,99688.69
2023-03-23T20:00:57.047Z,99692.66
2023-03-23T20:04:01.870Z,99693.66
2023-03-23T20:07:07.448Z,99695.69
2023-03-23T20:10:10.418Z,99699.44
2023-03-23T20:13:12.977Z,99701.31
2023-03-23T20:16:16.691Z,99702.69
2023-03-23T20:19:19.616Z,99697.69
2023-03-23T20:22:22.037Z,99695.84
2023-03-23T20:25:24.556Z,99720.78
2023-03-23T20:28:28.453Z,99711.00
2023-03-23T20:31:36.498Z,99699.22
2023-03-23T20:34:39.123Z,99731.19
2023-03-23T20:37:41.498Z,99740.22
2023-03-23T20:40:45.412Z,99728.81
2023-03-23T20:43:47.787Z,99727.72
2023-03-23T20:46:51.888Z,99726.94
2023-03-23T20:49:55.738Z,99728.16
2023-03-23T20:52:58.259Z,99726.75
2023-03-23T20:56:03.418Z,99707.59
2023-03-23T20:59:05.924Z,99737.97
2023-03-23T21:02:11.185Z,99738.19
2023-03-23T21:05:13.522Z,99731.38
2023-03-23T21:08:18.278Z,99722.84
2023-03-23T21:11:23.331Z,99734.56
2023-03-23T21:14:27.101Z,99732.34
2023-03-23T21:17:29.522Z,99722.72
2023-03-23T21:20:33.158Z,99721.91
2023-03-23T21:23:35.478Z,99731.09
2023-03-23T21:26:38.521Z,99721.56
2023-03-23T21:29:40.784Z,99704.66
2023-03-23T21:32:43.113Z,99702.84
2023-03-23T21:35:45.763Z,99699.81
2023-03-23T21:38:50.169Z,99716.59
2023-03-23T21:41:52.407Z,99713.91
2023-03-23T21:44:56.717Z,99710.44
2023-03-23T21:48:00.022Z,99722.97
2023-03-23T21:51:09.546Z,99741.09
2023-03-23T21:54:12.653Z,99759.81
2023-03-23T21:57:15.422Z,99752.22
2023-03-23T22:00:19.040Z,99753.66
2023-03-23T22:03:25.322Z,99762.84
2023-03-23T22:06:28.643Z,99758.84
2023-03-23T22:09:31.080Z,99768.22
2023-03-23T22:12:33.510Z,99766.59
2023-03-23T22:15:35.978Z,99764.59
2023-03-23T22:18:39.364Z,99760.75
2023-03-23T22:21:42.180Z,99764.19
2023-03-23T22:24:44.566Z,99762.72
2023-03-23T22:27:47.200Z,99755.03
2023-03-23T22:30:49.547Z,99744.31
2023-03-23T22:33:56.382Z,99739.16
2023-03-23T22:36:58.899Z,99727.44
2023-03-23T22:40:01.191Z,99722.53
2023-03-23T22:43:03.865Z,99721.06
2023-03-23T22:46:06.873Z,99728.13
2023-03-23T22:49:09.432Z,99714.72
2023-03-23T22:52:12.063Z,99715.47
2023-03-23T22:55:14.373Z,99708.44
2023-03-23T22:58:17.825Z,99706.16
2023-03-23T23:01:21.982Z,99705.94
2023-03-23T23:04:24.426Z,99713.34
2023-03-23T23:07:26.789Z,99719.66
2023-03-23T23:10:29.269Z,99718.53
2023-03-23T23:13:33.230Z,99720.16
2023-03-23T23:16:35.659Z,99712.59
2023-03-23T23:19:38.378Z,99723.28
2023-03-23T23:22:41.827Z,99724.19
2023-03-23T23:25:45.568Z,99724.53
2023-03-23T23:28:48.696Z,99717.56
2023-03-23T23:31:51.106Z,99713.91
2023-03-23T23:34:53.519Z,99712.13
2023-03-23T23:37:55.876Z,99717.97
2023-03-23T23:40:58.580Z,99701.00
2023-03-23T23:44:01.738Z,99704.69
2023-03-23T23:47:04.250Z,99709.50
2023-03-23T23:50:08.951Z,99710.81
2023-03-23T23:53:11.307Z,99700.78
2023-03-23T23:56:14.554Z,99715.78
2023-03-23T23:59:17.641Z,99701.00
